Time,TemperatureF,DewpointF,PressureIn,WindDirection,WindDirectionDegrees,WindSpeedMPH,WindSpeedGustMPH,Humidity,HourlyPrecipIn,Conditions,Clouds,dailyrainin,SoftwareType,DateUTC
2013-03-21 00:02:00,37.0,14.0,17.72,NE,47,2.0,7.0,39,0.00,,,0.00,,2013-03-21 05:02:00,
2013-03-21 00:12:00,37.0,14.0,17.72,NE,47,2.0,7.0,39,0.00,,,0.00,,2013-03-21 05:12:00,
2013-03-21 00:22:00,36.0,13.0,17.72,NE,34,3.0,5.0,39,0.00,,,0.00,,2013-03-21 05:22:00,
2013-03-21 00:32:00,36.0,13.0,17.72,ENE,73,2.0,5.0,39,0.00,,,0.00,,2013-03-21 05:32:00,
2013-03-21 00:43:00,35.0,13.0,17.72,ESE,106,3.0,5.0,40,0.00,,,0.00,,2013-03-21 05:43:00,
2013-03-21 00:52:00,35.0,13.0,17.72,ESE,106,3.0,5.0,40,0.00,,,0.00,,2013-03-21 05:52:00,
2013-03-21 01:02:00,35.0,13.0,17.72,ENE,73,3.0,3.0,40,0.00,,,0.00,,2013-03-21 06:02:00,
2013-03-21 01:12:00,35.0,13.0,17.72,ENE,73,3.0,3.0,40,0.00,,,0.00,,2013-03-21 06:12:00,
2013-03-21 01:22:00,35.0,13.0,17.72,East,82,3.0,3.0,40,0.00,,,0.00,,2013-03-21 06:22:00,
2013-03-21 01:32:00,35.0,13.0,17.72,East,89,3.0,3.0,40,0.00,,,0.00,,2013-03-21 06:32:00,
2013-03-21 01:42:00,35.0,13.0,17.72,East,89,3.0,3.0,40,0.00,,,0.00,,2013-03-21 06:42:00,
2013-03-21 01:52:00,35.0,13.0,17.72,East,81,5.0,5.0,40,0.00,,,0.00,,2013-03-21 06:52:00,
2013-03-21 02:02:00,35.0,13.0,17.72,NE,52,3.0,5.0,40,0.00,,,0.00,,2013-03-21 07:02:00,
2013-03-21 02:12:00,35.0,13.0,17.72,NE,52,3.0,5.0,40,0.00,,,0.00,,2013-03-21 07:12:00,
2013-03-21 02:22:00,35.0,13.0,17.72,ENE,76,3.0,5.0,40,0.00,,,0.00,,2013-03-21 07:22:00,
2013-03-21 02:32:00,35.0,14.0,17.72,ENE,59,3.0,5.0,41,0.00,,,0.00,,2013-03-21 07:32:00,
2013-03-21 02:42:00,35.0,14.0,17.72,ENE,59,3.0,5.0,41,0.00,,,0.00,,2013-03-21 07:42:00,
2013-03-21 02:52:00,35.0,13.0,17.72,ENE,75,4.0,7.0,40,0.00,,,0.00,,2013-03-21 07:52:00,
2013-03-21 03:02:00,35.0,13.0,17.72,ENE,59,5.0,7.0,40,0.00,,,0.00,,2013-03-21 08:02:00,
2013-03-21 03:13:00,34.0,12.0,17.72,ESE,110,2.0,5.0,40,0.00,,,0.00,,2013-03-21 08:13:00,
2013-03-21 03:22:00,34.0,12.0,17.72,ESE,110,2.0,5.0,40,0.00,,,0.00,,2013-03-21 08:22:00,
2013-03-21 03:33:00,34.0,12.0,17.72,East,84,7.0,9.0,40,0.00,,,0.00,,2013-03-21 08:33:00,
2013-03-21 03:42:00,34.0,12.0,17.72,East,84,7.0,9.0,40,0.00,,,0.00,,2013-03-21 08:42:00,
2013-03-21 03:52:00,34.0,13.0,17.72,NE,56,3.0,3.0,41,0.00,,,0.00,,2013-03-21 08:52:00,
2013-03-21 04:02:00,34.0,13.0,17.72,NE,45,5.0,9.0,41,0.00,,,0.00,,2013-03-21 09:02:00,
2013-03-21 04:11:00,34.0,13.0,17.72,NE,45,5.0,9.0,41,0.00,,,0.00,,2013-03-21 09:11:00,
2013-03-21 04:21:00,34.0,12.0,17.72,NE,50,5.0,5.0,40,0.00,,,0.00,,2013-03-21 09:21:00,
2013-03-21 04:33:00,34.0,12.0,17.72,ENE,74,5.0,5.0,40,0.00,,,0.00,,2013-03-21 09:33:00,
2013-03-21 04:43:00,34.0,12.0,17.72,ENE,74,5.0,5.0,40,0.00,,,0.00,,2013-03-21 09:43:00,
2013-03-21 04:53:00,34.0,12.0,17.72,East,101,5.0,7.0,40,0.00,,,0.00,,2013-03-21 09:53:00,
2013-03-21 05:02:00,34.0,12.0,17.72,ENE,77,3.0,5.0,40,0.00,,,0.00,,2013-03-21 10:02:00,
2013-03-21 05:12:00,34.0,12.0,17.72,ENE,77,3.0,5.0,40,0.00,,,0.00,,2013-03-21 10:12:00,
2013-03-21 05:22:00,35.0,13.0,17.72,East,101,3.0,5.0,40,0.00,,,0.00,,2013-03-21 10:22:00,
2013-03-21 05:33:00,35.0,13.0,17.72,East,98,3.0,5.0,40,0.00,,,0.00,,2013-03-21 10:33:00,
2013-03-21 05:42:00,35.0,13.0,17.72,East,98,3.0,5.0,40,0.00,,,0.00,,2013-03-21 10:42:00,
2013-03-21 05:53:00,35.0,13.0,17.72,East,88,3.0,5.0,40,0.00,,,0.00,,2013-03-21 10:53:00,
2013-03-21 06:02:00,35.0,13.0,17.72,East,87,3.0,5.0,40,0.00,,,0.00,,2013-03-21 11:02:00,
2013-03-21 06:12:00,35.0,13.0,17.72,East,87,3.0,5.0,40,0.00,,,0.00,,2013-03-21 11:12:00,
2013-03-21 06:22:00,35.0,13.0,17.72,East,79,7.0,11.0,39,0.00,,,0.00,,2013-03-21 11:22:00,
2013-03-21 06:33:00,35.0,13.0,17.72,ENE,77,2.0,5.0,39,0.00,,,0.00,,2013-03-21 11:33:00,
2013-03-21 06:42:00,35.0,13.0,17.72,ENE,77,2.0,5.0,39,0.00,,,0.00,,2013-03-21 11:42:00,
2013-03-21 06:53:00,35.0,13.0,17.72,East,92,5.0,7.0,39,0.00,,,0.00,,2013-03-21 11:53:00,
2013-03-21 07:02:00,35.0,13.0,17.72,NE,41,8.0,10.0,39,0.00,,,0.00,,2013-03-21 12:02:00,
2013-03-21 07:12:00,35.0,13.0,17.72,NE,41,8.0,10.0,39,0.00,,,0.00,,2013-03-21 12:12:00,
2013-03-21 07:22:00,35.0,12.0,17.72,NE,50,3.0,5.0,38,0.00,,,0.00,,2013-03-21 12:22:00,
2013-03-21 07:32:00,34.0,12.0,17.72,NE,51,4.0,8.0,39,0.00,,,0.00,,2013-03-21 12:32:00,
2013-03-21 07:42:00,34.0,12.0,17.72,NE,51,4.0,8.0,39,0.00,,,0.00,,2013-03-21 12:42:00,
2013-03-21 07:53:00,34.0,12.0,17.72,NE,55,3.0,7.0,39,0.00,,,0.00,,2013-03-21 12:53:00,
2013-03-21 08:02:00,34.0,12.0,17.72,ENE,72,7.0,7.0,39,0.00,,,0.00,,2013-03-21 13:02:00,
2013-03-21 08:12:00,34.0,12.0,17.72,ENE,72,7.0,7.0,39,0.00,,,0.00,,2013-03-21 13:12:00,
2013-03-21 08:22:00,34.0,12.0,17.72,East,95,2.0,5.0,39,0.00,,,0.00,,2013-03-21 13:22:00,
2013-03-21 08:32:00,34.0,11.0,17.72,NE,53,6.0,9.0,38,0.00,,,0.00,,2013-03-21 13:32:00,
2013-03-21 08:42:00,34.0,11.0,17.72,NE,53,6.0,9.0,38,0.00,,,0.00,,2013-03-21 13:42:00,
2013-03-21 08:52:00,35.0,11.0,17.72,East,83,5.0,7.0,37,0.00,,,0.00,,2013-03-21 13:52:00,
2013-03-21 09:02:00,35.0,11.0,17.72,East,89,5.0,5.0,37,0.00,,,0.00,,2013-03-21 14:02:00,
2013-03-21 09:12:00,35.0,11.0,17.72,ENE,72,5.0,6.0,37,0.00,,,0.00,,2013-03-21 14:12:00,
2013-03-21 09:22:00,35.0,11.0,17.72,ENE,72,5.0,6.0,37,0.00,,,0.00,,2013-03-21 14:22:00,
2013-03-21 09:32:00,35.0,11.0,17.72,SE,126,3.0,7.0,36,0.00,,,0.00,,2013-03-21 14:32:00,
2013-03-21 09:42:00,35.0,11.0,17.72,SE,126,3.0,7.0,36,0.00,,,0.00,,2013-03-21 14:42:00,
2013-03-21 09:52:00,35.0,11.0,17.72,East,81,4.0,9.0,36,0.00,,,0.00,,2013-03-21 14:52:00,
2013-03-21 10:03:00,36.0,12.0,17.72,East,84,7.0,10.0,36,0.00,,,0.00,,2013-03-21 15:03:00,
2013-03-21 10:12:00,40.0,13.0,17.72,ENE,78,4.0,8.0,33,0.00,,,0.00,,2013-03-21 15:12:00,
2013-03-21 10:22:00,40.0,13.0,17.72,ENE,78,4.0,8.0,33,0.00,,,0.00,,2013-03-21 15:22:00,
2013-03-21 10:33:00,40.0,13.0,17.72,ENE,74,7.0,8.0,33,0.00,,,0.00,,2013-03-21 15:33:00,
2013-03-21 10:42:00,40.0,13.0,17.72,ENE,74,7.0,8.0,33,0.00,,,0.00,,2013-03-21 15:42:00,
2013-03-21 10:53:00,40.0,13.0,17.72,ENE,74,7.0,8.0,33,0.00,,,0.00,,2013-03-21 15:53:00,
2013-03-21 11:03:00,42.0,14.0,17.72,East,93,6.0,6.0,32,0.00,,,0.00,,2013-03-21 16:03:00,
2013-03-21 11:12:00,42.0,14.0,17.72,East,93,6.0,6.0,32,0.00,,,0.00,,2013-03-21 16:12:00,
2013-03-21 11:23:00,45.0,15.0,17.72,ENE,77,5.0,9.0,30,0.00,,,0.00,,2013-03-21 16:23:00,
2013-03-21 11:33:00,46.0,16.0,17.72,ENE,63,8.0,8.0,30,0.00,,,0.00,,2013-03-21 16:33:00,
2013-03-21 11:42:00,46.0,16.0,17.72,ENE,63,8.0,8.0,30,0.00,,,0.00,,2013-03-21 16:42:00,
2013-03-21 11:53:00,46.0,16.0,17.72,ESE,103,9.0,9.0,29,0.00,,,0.00,,2013-03-21 16:53:00,
2013-03-21 12:02:00,47.0,16.0,17.72,East,82,5.0,8.0,28,0.00,,,0.00,,2013-03-21 17:02:00,
2013-03-21 12:12:00,47.0,16.0,17.72,East,82,5.0,8.0,28,0.00,,,0.00,,2013-03-21 17:12:00,
2013-03-21 12:23:00,49.0,17.0,17.72,ENE,63,5.0,8.0,28,0.00,,,0.00,,2013-03-21 17:23:00,
2013-03-21 12:32:00,50.0,17.0,17.72,East,84,7.0,9.0,27,0.00,,,0.00,,2013-03-21 17:32:00,
2013-03-21 12:42:00,50.0,17.0,17.72,East,84,7.0,9.0,27,0.00,,,0.00,,2013-03-21 17:42:00,
2013-03-21 12:53:00,49.0,16.0,17.72,East,85,7.0,9.0,27,0.00,,,0.00,,2013-03-21 17:53:00,
2013-03-21 13:02:00,49.0,16.0,17.72,ENE,78,8.0,9.0,27,0.00,,,0.00,,2013-03-21 18:02:00,
2013-03-21 13:12:00,49.0,16.0,17.72,ENE,78,8.0,9.0,27,0.00,,,0.00,,2013-03-21 18:12:00,
2013-03-21 13:23:00,50.0,17.0,17.72,ENE,64,5.0,8.0,27,0.00,,,0.00,,2013-03-21 18:23:00,
2013-03-21 13:32:00,50.0,17.0,17.72,East,97,5.0,9.0,27,0.00,,,0.00,,2013-03-21 18:32:00,
2013-03-21 13:42:00,50.0,17.0,17.72,East,97,5.0,9.0,27,0.00,,,0.00,,2013-03-21 18:42:00,
2013-03-21 13:52:00,51.0,18.0,17.72,ESE,121,3.0,7.0,27,0.00,,,0.00,,2013-03-21 18:52:00,
2013-03-21 14:02:00,52.0,18.0,17.72,ESE,104,5.0,9.0,26,0.00,,,0.00,,2013-03-21 19:02:00,
2013-03-21 14:12:00,52.0,18.0,17.72,ESE,104,5.0,9.0,26,0.00,,,0.00,,2013-03-21 19:12:00,
2013-03-21 14:22:00,52.0,18.0,17.72,ENE,64,8.0,8.0,26,0.00,,,0.00,,2013-03-21 19:22:00,
2013-03-21 14:32:00,52.0,18.0,17.72,ENE,69,7.0,9.0,26,0.00,,,0.00,,2013-03-21 19:32:00,
2013-03-21 14:42:00,52.0,18.0,17.72,ENE,69,7.0,9.0,26,0.00,,,0.00,,2013-03-21 19:42:00,
2013-03-21 14:53:00,52.0,18.0,17.72,East,92,5.0,7.0,26,0.00,,,0.00,,2013-03-21 19:53:00,
2013-03-21 15:02:00,53.0,19.0,17.72,ENE,72,5.0,7.0,26,0.00,,,0.00,,2013-03-21 20:02:00,
2013-03-21 15:12:00,53.0,19.0,17.72,ENE,72,5.0,7.0,26,0.00,,,0.00,,2013-03-21 20:12:00,
2013-03-21 15:22:00,53.0,19.0,17.72,ESE,105,5.0,8.0,26,0.00,,,0.00,,2013-03-21 20:22:00,
2013-03-21 15:33:00,53.0,19.0,17.72,ENE,61,5.0,8.0,26,0.00,,,0.00,,2013-03-21 20:33:00,
2013-03-21 15:42:00,53.0,19.0,17.72,ENE,61,5.0,8.0,26,0.00,,,0.00,,2013-03-21 20:42:00,
2013-03-21 15:53:00,53.0,19.0,17.72,East,95,10.0,11.0,26,0.00,,,0.00,,2013-03-21 20:53:00,
2013-03-21 16:02:00,53.0,19.0,17.72,ENE,68,6.0,8.0,26,0.00,,,0.00,,2013-03-21 21:02:00,
2013-03-21 16:12:00,53.0,19.0,17.72,ENE,68,6.0,8.0,26,0.00,,,0.00,,2013-03-21 21:12:00,
2013-03-21 16:22:00,53.0,20.0,17.72,ENE,73,5.0,5.0,27,0.00,,,0.00,,2013-03-21 21:22:00,
2013-03-21 16:32:00,52.0,20.0,17.72,NE,42,5.0,7.0,28,0.00,,,0.00,,2013-03-21 21:32:00,
2013-03-21 16:43:00,52.0,20.0,17.72,NE,42,5.0,7.0,28,0.00,,,0.00,,2013-03-21 21:43:00,
2013-03-21 16:53:00,51.0,20.0,17.72,North,5,3.0,5.0,29,0.00,,,0.00,,2013-03-21 21:53:00,
2013-03-21 17:02:00,52.0,21.0,17.72,ESE,107,7.0,7.0,29,0.00,,,0.00,,2013-03-21 22:02:00,
2013-03-21 17:13:00,52.0,21.0,17.72,ESE,107,7.0,7.0,29,0.00,,,0.00,,2013-03-21 22:13:00,
2013-03-21 17:23:00,51.0,21.0,17.72,ESE,117,9.0,11.0,30,0.00,,,0.00,,2013-03-21 22:23:00,
2013-03-21 17:33:00,50.0,20.0,17.72,ENE,78,3.0,7.0,30,0.00,,,0.00,,2013-03-21 22:33:00,
2013-03-21 17:42:00,50.0,20.0,17.72,ENE,78,3.0,7.0,30,0.00,,,0.00,,2013-03-21 22:42:00,
2013-03-21 17:52:00,49.0,21.0,17.72,ESE,116,5.0,7.0,33,0.00,,,0.00,,2013-03-21 22:52:00,
2013-03-21 18:02:00,48.0,20.0,17.72,ENE,61,11.0,11.0,33,0.00,,,0.00,,2013-03-21 23:02:00,
2013-03-21 18:12:00,48.0,20.0,17.72,ENE,61,11.0,11.0,33,0.00,,,0.00,,2013-03-21 23:12:00,
2013-03-21 18:22:00,47.0,21.0,17.72,East,86,5.0,8.0,36,0.00,,,0.00,,2013-03-21 23:22:00,
2013-03-21 18:32:00,45.0,20.0,17.72,ENE,63,8.0,8.0,37,0.00,,,0.00,,2013-03-21 23:32:00,
2013-03-21 18:42:00,45.0,20.0,17.72,ENE,63,8.0,8.0,37,0.00,,,0.00,,2013-03-21 23:42:00,
2013-03-21 18:53:00,43.0,20.0,17.72,NE,43,7.0,11.0,40,0.00,,,0.00,,2013-03-21 23:53:00,
2013-03-21 19:02:00,42.0,20.0,17.72,ENE,70,5.0,6.0,41,0.00,,,0.00,,2013-03-22 00:02:00,
2013-03-21 19:12:00,42.0,20.0,17.72,ENE,70,5.0,6.0,41,0.00,,,0.00,,2013-03-22 00:12:00,
2013-03-21 19:22:00,40.0,21.0,17.72,ENE,73,3.0,6.0,46,0.00,,,0.00,,2013-03-22 00:22:00,
2013-03-21 19:32:00,39.0,21.0,17.72,East,91,5.0,5.0,49,0.00,,,0.00,,2013-03-22 00:32:00,
2013-03-21 19:42:00,39.0,21.0,17.72,East,91,5.0,5.0,49,0.00,,,0.00,,2013-03-22 00:42:00,
2013-03-21 19:52:00,38.0,22.0,17.72,NE,48,4.0,11.0,52,0.00,,,0.00,,2013-03-22 00:52:00,
2013-03-21 20:02:00,37.0,21.0,17.72,NE,45,3.0,7.0,53,0.00,,,0.00,,2013-03-22 01:02:00,
2013-03-21 20:12:00,37.0,21.0,17.72,NE,45,3.0,7.0,53,0.00,,,0.00,,2013-03-22 01:12:00,
2013-03-21 20:22:00,36.0,22.0,17.72,NE,55,3.0,10.0,57,0.00,,,0.00,,2013-03-22 01:22:00,
2013-03-21 20:32:00,36.0,23.0,17.72,NE,45,5.0,5.0,58,0.00,,,0.00,,2013-03-22 01:32:00,
2013-03-21 20:42:00,36.0,23.0,17.72,NE,45,5.0,5.0,58,0.00,,,0.00,,2013-03-22 01:42:00,
2013-03-21 20:53:00,36.0,23.0,17.72,ENE,68,7.0,7.0,60,0.00,,,0.00,,2013-03-22 01:53:00,
2013-03-21 21:02:00,35.0,23.0,17.72,East,81,5.0,7.0,62,0.00,,,0.00,,2013-03-22 02:02:00,
2013-03-21 21:12:00,35.0,23.0,17.72,East,81,5.0,7.0,62,0.00,,,0.00,,2013-03-22 02:12:00,
2013-03-21 21:22:00,35.0,23.0,17.72,ENE,75,3.0,5.0,62,0.00,,,0.00,,2013-03-22 02:22:00,
2013-03-21 21:32:00,35.0,24.0,17.72,ENE,65,5.0,10.0,64,0.00,,,0.00,,2013-03-22 02:32:00,
2013-03-21 21:42:00,35.0,24.0,17.72,ENE,65,5.0,10.0,64,0.00,,,0.00,,2013-03-22 02:42:00,
2013-03-21 21:53:00,34.0,24.0,17.72,ENE,64,5.0,5.0,66,0.00,,,0.00,,2013-03-22 02:53:00,
2013-03-21 22:02:00,34.0,24.0,17.72,NE,38,5.0,8.0,67,0.00,,,0.00,,2013-03-22 03:02:00,
2013-03-21 22:12:00,34.0,24.0,17.72,NE,38,5.0,8.0,67,0.00,,,0.00,,2013-03-22 03:12:00,
2013-03-21 22:22:00,34.0,24.0,17.72,NNE,28,3.0,5.0,67,0.00,,,0.00,,2013-03-22 03:22:00,
2013-03-21 22:33:00,34.0,25.0,17.72,NNE,30,7.0,7.0,68,0.00,,,0.00,,2013-03-22 03:33:00,
2013-03-21 22:42:00,34.0,25.0,17.72,NNE,30,7.0,7.0,68,0.00,,,0.00,,2013-03-22 03:42:00,
2013-03-21 22:53:00,34.0,25.0,17.72,NE,39,3.0,4.0,70,0.00,,,0.00,,2013-03-22 03:53:00,
2013-03-21 23:03:00,34.0,25.0,17.72,NNE,25,3.0,7.0,70,0.00,,,0.00,,2013-03-22 04:03:00,
2013-03-21 23:12:00,34.0,25.0,17.72,NNE,25,3.0,7.0,70,0.00,,,0.00,,2013-03-22 04:12:00,
2013-03-21 23:23:00,33.0,24.0,17.72,ENE,60,3.0,5.0,70,0.00,,,0.00,,2013-03-22 04:23:00,
2013-03-21 23:32:00,33.0,25.0,17.72,NE,44,3.0,5.0,71,0.00,,,0.00,,2013-03-22 04:32:00,
2013-03-21 23:42:00,33.0,25.0,17.72,NE,44,3.0,5.0,71,0.00,,,0.00,,2013-03-22 04:42:00,
2013-03-21 23:52:00,33.0,25.0,17.72,NNE,24,5.0,8.0,71,0.00,,,0.00,,2013-03-22 04:52:00,